createdAt,value
2022-11-26T00:00:28.960Z,73935.88
2022-11-26T00:01:01.186Z,73931.88
2022-11-26T00:01:33.435Z,73931.88
2022-11-26T00:02:18.917Z,73935.88
2022-11-26T00:02:51.481Z,73935.88
2022-11-26T00:03:24.208Z,73937.88
2022-11-26T00:04:03.231Z,73943.84
2022-11-26T00:04:35.630Z,73935.88
2022-11-26T00:05:13.428Z,73941.84
2022-11-26T00:05:50.212Z,73941.84
2022-11-26T00:06:27.586Z,73947.84
2022-11-26T00:06:59.800Z,73943.84
2022-11-26T00:07:36.004Z,73947.84
2022-11-26T00:08:16.707Z,73943.84
2022-11-26T00:08:51.551Z,73941.84
2022-11-26T00:09:25.301Z,73947.84
2022-11-26T00:09:58.725Z,73949.84
2022-11-26T00:10:38.855Z,73943.84
2022-11-26T00:11:14.444Z,73949.84
2022-11-26T00:11:46.653Z,73959.81
2022-11-26T00:12:26.007Z,73951.84
2022-11-26T00:12:58.368Z,73955.84
2022-11-26T00:13:31.520Z,73951.84
2022-11-26T00:14:06.487Z,73951.84
2022-11-26T00:14:39.006Z,73955.84
2022-11-26T00:15:16.321Z,73955.84
2022-11-26T00:15:51.846Z,73959.81
2022-11-26T00:16:24.107Z,73955.84
2022-11-26T00:16:58.989Z,73959.81
2022-11-26T00:17:31.284Z,73953.84
2022-11-26T00:18:03.636Z,73957.81
2022-11-26T00:18:38.444Z,73951.84
2022-11-26T00:19:10.792Z,73951.84
2022-11-26T00:19:44.003Z,73953.84
2022-11-26T00:20:22.279Z,73957.81
2022-11-26T00:20:56.354Z,73955.84
2022-11-26T00:21:28.697Z,73959.81
2022-11-26T00:22:03.513Z,73955.84
2022-11-26T00:22:38.900Z,73955.84
2022-11-26T00:23:21.832Z,73961.81
2022-11-26T00:23:54.846Z,73959.81
2022-11-26T00:24:28.211Z,73953.84
2022-11-26T00:25:03.056Z,73959.81
2022-11-26T00:25:39.567Z,73961.81
2022-11-26T00:26:15.201Z,73963.81
2022-11-26T00:26:50.019Z,73963.81
2022-11-26T00:27:24.092Z,73959.81
2022-11-26T00:27:57.872Z,73967.81
2022-11-26T00:28:34.604Z,73953.84
2022-11-26T00:29:08.611Z,73959.81
2022-11-26T00:29:40.852Z,73963.81
2022-11-26T00:30:21.865Z,73961.81
2022-11-26T00:30:56.317Z,73963.81
2022-11-26T00:31:29.837Z,73967.81
2022-11-26T00:32:04.791Z,73963.81
2022-11-26T00:32:37.083Z,73967.81
2022-11-26T00:33:09.316Z,73967.81
2022-11-26T00:33:44.380Z,73969.81
2022-11-26T00:34:16.605Z,73975.78
2022-11-26T00:34:48.925Z,73967.81
2022-11-26T00:35:26.631Z,73975.78
2022-11-26T00:36:01.679Z,73979.78
2022-11-26T00:36:34.131Z,73979.78
2022-11-26T00:37:08.944Z,73977.78
2022-11-26T00:37:43.701Z,73975.78
2022-11-26T00:38:17.953Z,73987.78
2022-11-26T00:38:56.063Z,73979.78
2022-11-26T00:39:28.319Z,73979.78
2022-11-26T00:40:00.584Z,73975.78
2022-11-26T00:40:36.591Z,73989.78
2022-11-26T00:41:18.248Z,73991.78
2022-11-26T00:41:54.385Z,73991.78
2022-11-26T00:42:26.635Z,73983.78
2022-11-26T00:43:01.867Z,73991.78
2022-11-26T00:43:37.008Z,73991.78
2022-11-26T00:44:17.590Z,73991.78
2022-11-26T00:44:49.817Z,73987.78
2022-11-26T00:45:26.194Z,73987.78
2022-11-26T00:45:58.830Z,73987.78
2022-11-26T00:46:31.149Z,73989.78
2022-11-26T00:47:06.117Z,73991.78
2022-11-26T00:47:38.321Z,73991.78
2022-11-26T00:48:10.569Z,73989.78
2022-11-26T00:48:42.819Z,73987.78
2022-11-26T00:49:17.907Z,73987.78
2022-11-26T00:49:50.261Z,73987.78
2022-11-26T00:50:27.332Z,73983.78
2022-11-26T00:51:02.179Z,73987.78
2022-11-26T00:51:34.588Z,73987.78
2022-11-26T00:52:20.731Z,73979.78
2022-11-26T00:52:58.164Z,73985.78
2022-11-26T00:53:30.429Z,73985.78
2022-11-26T00:54:04.423Z,73979.78
2022-11-26T00:54:39.471Z,73979.78
2022-11-26T00:55:18.307Z,73975.78
2022-11-26T00:55:50.723Z,73981.78
2022-11-26T00:56:25.981Z,73975.78
2022-11-26T00:56:58.205Z,73981.78
2022-11-26T00:57:30.415Z,73987.78
2022-11-26T00:58:05.368Z,73981.78
2022-11-26T00:58:37.588Z,73979.78
2022-11-26T00:59:12.823Z,73983.78
2022-11-26T00:59:47.616Z,73983.78
2022-11-26T01:00:22.760Z,73983.78
2022-11-26T01:00:57.328Z,73979.78
2022-11-26T01:01:33.038Z,73979.78
2022-11-26T01:02:05.438Z,73983.78
2022-11-26T01:02:37.758Z,73979.78
2022-11-26T01:03:12.654Z,73981.78
2022-11-26T01:03:45.156Z,73989.78
2022-11-26T01:04:17.407Z,73987.78
2022-11-26T01:04:52.269Z,73981.78
2022-11-26T01:05:30.718Z,73977.78
2022-11-26T01:06:05.535Z,73983.78
2022-11-26T01:06:39.844Z,73983.78
2022-11-26T01:07:12.134Z,73983.78
2022-11-26T01:07:48.004Z,73987.78
2022-11-26T01:08:26.929Z,73983.78
2022-11-26T01:08:59.462Z,73987.78
2022-11-26T01:09:34.319Z,73983.78
2022-11-26T01:10:10.706Z,73985.78
2022-11-26T01:10:42.992Z,73985.78
2022-11-26T01:11:19.336Z,73991.78
2022-11-26T01:11:54.483Z,73983.78
2022-11-26T01:12:26.950Z,73993.75
2022-11-26T01:13:01.771Z,73989.78
2022-11-26T01:13:34.005Z,73991.78
2022-11-26T01:14:07.225Z,73991.78
2022-11-26T01:14:42.041Z,73991.78
2022-11-26T01:15:15.060Z,73991.78
2022-11-26T01:15:50.064Z,73991.78
2022-11-26T01:16:23.892Z,73995.75
2022-11-26T01:16:59.902Z,73991.78
2022-11-26T01:17:32.167Z,73997.75
2022-11-26T01:18:11.969Z,73995.75
2022-11-26T01:18:46.862Z,73999.75
2022-11-26T01:19:19.132Z,73997.75
2022-11-26T01:19:51.424Z,74001.75
2022-11-26T01:20:31.582Z,73999.75
2022-11-26T01:21:03.876Z,73999.75
2022-11-26T01:21:36.255Z,73997.75
2022-11-26T01:22:17.774Z,74003.75
2022-11-26T01:22:50.908Z,74003.75
2022-11-26T01:23:25.734Z,74005.75
2022-11-26T01:23:58.100Z,74011.72
2022-11-26T01:24:30.305Z,74011.72
2022-11-26T01:25:05.117Z,74011.72
2022-11-26T01:25:37.328Z,74007.75
2022-11-26T01:26:18.229Z,74015.72
2022-11-26T01:26:50.531Z,74013.72
2022-11-26T01:27:22.768Z,74015.72
2022-11-26T01:27:55.201Z,74021.72
2022-11-26T01:28:30.060Z,74023.72
2022-11-26T01:29:02.281Z,74019.72
2022-11-26T01:29:34.483Z,74015.72
2022-11-26T01:30:16.962Z,74019.72
2022-11-26T01:30:49.275Z,74023.72
2022-11-26T01:31:23.449Z,74015.72
2022-11-26T01:31:58.351Z,74019.72
2022-11-26T01:32:30.617Z,74019.72
2022-11-26T01:33:05.457Z,74021.72
2022-11-26T01:33:37.656Z,74019.72
2022-11-26T01:34:09.916Z,74021.72
2022-11-26T01:34:44.793Z,74023.72
2022-11-26T01:35:17.749Z,74023.72
2022-11-26T01:35:52.598Z,74019.72
2022-11-26T01:36:30.700Z,74023.72
2022-11-26T01:37:02.926Z,74019.72
2022-11-26T01:37:35.187Z,74019.72
2022-11-26T01:38:12.144Z,74027.72
2022-11-26T01:38:44.391Z,74023.72
2022-11-26T01:39:18.303Z,74027.72
2022-11-26T01:39:53.175Z,74023.72
2022-11-26T01:40:50.054Z,74023.72
2022-11-26T01:41:34.625Z,74027.72
2022-11-26T01:42:14.403Z,74019.72
2022-11-26T01:42:50.141Z,74023.72
2022-11-26T01:43:28.537Z,74023.72
2022-11-26T01:44:01.247Z,74021.72
2022-11-26T01:44:38.525Z,74023.72
2022-11-26T01:45:15.692Z,74021.72
2022-11-26T01:45:48.045Z,74021.72
2022-11-26T01:46:26.440Z,74017.72
2022-11-26T01:46:59.855Z,74017.72
2022-11-26T01:47:32.061Z,74015.72
2022-11-26T01:48:22.227Z,74027.72
2022-11-26T01:48:55.757Z,74027.72
2022-11-26T01:49:29.807Z,74027.72
2022-11-26T01:50:34.599Z,74027.72
2022-11-26T01:51:13.864Z,74025.72
2022-11-26T01:51:46.881Z,74029.72
2022-11-26T01:52:21.817Z,74027.72
2022-11-26T01:52:54.779Z,74027.72
2022-11-26T01:53:36.284Z,74027.72
2022-11-26T01:54:08.529Z,74027.72
2022-11-26T01:54:45.691Z,74027.72
2022-11-26T01:55:18.312Z,74031.69
2022-11-26T01:55:54.851Z,74027.72
2022-11-26T01:56:34.171Z,74027.72
2022-11-26T01:57:08.608Z,74033.69
2022-11-26T01:57:40.950Z,74027.72
2022-11-26T01:58:16.437Z,74023.72
2022-11-26T01:58:54.010Z,74023.72
2022-11-26T01:59:29.031Z,74023.72
2022-11-26T02:00:01.607Z,74029.72
2022-11-26T02:00:36.569Z,74029.72
2022-11-26T02:01:09.174Z,74027.72
2022-11-26T02:01:44.190Z,74033.69
2022-11-26T02:02:16.666Z,74027.72
2022-11-26T02:02:48.946Z,74033.69
2022-11-26T02:03:21.317Z,74033.69
2022-11-26T02:04:01.075Z,74039.69
2022-11-26T02:04:38.668Z,74033.69
2022-11-26T02:05:15.321Z,74035.69
2022-11-26T02:05:55.033Z,74025.72
2022-11-26T02:06:32.609Z,74031.69
2022-11-26T02:07:07.543Z,74035.69
2022-11-26T02:07:39.945Z,74027.72
2022-11-26T02:08:12.736Z,74033.69
2022-11-26T02:08:47.828Z,74033.69
2022-11-26T02:09:20.143Z,74033.69
2022-11-26T02:09:52.413Z,74027.72
2022-11-26T02:10:27.233Z,74031.69
2022-11-26T02:10:59.446Z,74041.69
2022-11-26T02:11:33.221Z,74029.72
2022-11-26T02:12:08.301Z,74041.69
2022-11-26T02:12:41.131Z,74035.69
2022-11-26T02:13:13.358Z,74039.69
2022-11-26T02:13:49.985Z,74039.69
2022-11-26T02:14:24.335Z,74033.69
2022-11-26T02:14:56.579Z,74035.69
2022-11-26T02:15:35.059Z,74043.69
2022-11-26T02:16:12.402Z,74039.69
2022-11-26T02:17:00.582Z,74039.69
2022-11-26T02:17:36.227Z,74039.69
2022-11-26T02:18:09.653Z,74039.69
2022-11-26T02:18:47.954Z,74047.66
2022-11-26T02:19:45.905Z,74041.69
2022-11-26T02:20:30.839Z,74041.69
2022-11-26T02:21:06.654Z,74047.66
2022-11-26T02:21:48.083Z,74047.66
2022-11-26T02:22:39.656Z,74049.66
2022-11-26T02:23:41.625Z,74043.69
2022-11-26T02:24:28.448Z,74047.66
2022-11-26T02:25:06.144Z,74049.66
2022-11-26T02:25:56.917Z,74055.66
2022-11-26T02:27:03.189Z,74063.66
2022-11-26T02:28:07.240Z,74061.66
2022-11-26T02:29:14.667Z,74067.63
2022-11-26T02:30:01.209Z,74067.63
2022-11-26T02:30:39.679Z,74063.66
2022-11-26T02:31:13.406Z,74067.63
2022-11-26T02:31:48.224Z,74067.63
2022-11-26T02:32:25.649Z,74067.63
2022-11-26T02:33:01.953Z,74071.63
2022-11-26T02:33:38.608Z,74075.63
2022-11-26T02:34:18.393Z,74067.63
2022-11-26T02:34:55.922Z,74071.63
2022-11-26T02:35:36.565Z,74075.63
2022-11-26T02:36:13.808Z,74075.63
2022-11-26T02:36:50.221Z,74087.59
2022-11-26T02:37:29.485Z,74085.59
2022-11-26T02:38:04.969Z,74091.59
2022-11-26T02:38:38.743Z,74091.59
2022-11-26T02:39:14.967Z,74079.63
2022-11-26T02:39:47.690Z,74091.59
2022-11-26T02:40:20.108Z,74095.59
2022-11-26T02:40:55.301Z,74095.59
2022-11-26T02:41:34.047Z,74097.59
2022-11-26T02:42:24.076Z,74091.59
2022-11-26T02:42:59.036Z,74103.56
2022-11-26T02:43:31.683Z,74107.56
2022-11-26T02:44:03.947Z,74105.56
2022-11-26T02:44:44.681Z,74107.56
2022-11-26T02:45:22.729Z,74107.56
2022-11-26T02:45:56.936Z,74111.56
2022-11-26T02:46:31.833Z,74111.56
2022-11-26T02:47:06.958Z,74113.56
2022-11-26T02:47:41.075Z,74115.56
2022-11-26T02:48:18.084Z,74111.56
2022-11-26T02:48:51.784Z,74111.56
2022-11-26T02:49:24.245Z,74119.56
2022-11-26T02:49:57.833Z,74119.56
2022-11-26T02:50:35.549Z,74119.56
2022-11-26T02:51:10.869Z,74123.53
2022-11-26T02:51:43.392Z,74125.53
2022-11-26T02:52:19.214Z,74115.56
2022-11-26T02:52:53.256Z,74125.53
2022-11-26T02:53:27.431Z,74121.56
2022-11-26T02:54:02.634Z,74119.56
2022-11-26T02:54:35.631Z,74123.53
2022-11-26T02:55:09.744Z,74125.53
2022-11-26T02:55:47.852Z,74135.53
2022-11-26T02:56:21.841Z,74131.53
2022-11-26T02:56:55.112Z,74129.53
2022-11-26T02:57:32.324Z,74137.53
2022-11-26T02:58:04.746Z,74129.53
2022-11-26T02:58:37.368Z,74135.53
2022-11-26T02:59:13.017Z,74131.53
2022-11-26T02:59:45.403Z,74129.53
2022-11-26T03:00:21.036Z,74135.53
2022-11-26T03:00:57.443Z,74133.53
2022-11-26T03:01:32.527Z,74139.53
2022-11-26T03:02:08.697Z,74139.53
2022-11-26T03:02:46.653Z,74143.50
2022-11-26T03:03:24.129Z,74133.53
2022-11-26T03:03:58.573Z,74139.53
2022-11-26T03:04:36.728Z,74139.53
2022-11-26T03:05:09.384Z,74137.53
2022-11-26T03:05:42.600Z,74139.53
2022-11-26T03:06:18.341Z,74135.53
2022-11-26T03:06:51.091Z,74139.53
2022-11-26T03:07:23.503Z,74143.50
2022-11-26T03:07:58.474Z,74137.53
2022-11-26T03:08:32.101Z,74135.53
2022-11-26T03:09:07.495Z,74139.53
2022-11-26T03:09:41.257Z,74143.50
2022-11-26T03:10:13.786Z,74137.53
2022-11-26T03:10:48.613Z,74141.50
2022-11-26T03:11:21.402Z,74135.53
2022-11-26T03:11:53.783Z,74129.53
2022-11-26T03:12:28.907Z,74133.53
2022-11-26T03:13:01.123Z,74137.53
2022-11-26T03:13:33.419Z,74131.53
2022-11-26T03:14:08.246Z,74135.53
2022-11-26T03:14:40.853Z,74135.53
2022-11-26T03:15:13.209Z,74135.53
2022-11-26T03:15:50.621Z,74131.53
2022-11-26T03:16:22.971Z,74131.53
2022-11-26T03:16:55.321Z,74129.53
2022-11-26T03:17:30.194Z,74131.53
2022-11-26T03:18:02.408Z,74135.53
2022-11-26T03:18:34.630Z,74135.53
2022-11-26T03:19:09.535Z,74137.53
2022-11-26T03:19:42.028Z,74131.53
2022-11-26T03:20:14.421Z,74127.53
2022-11-26T03:20:52.205Z,74125.53
2022-11-26T03:21:24.847Z,74131.53
2022-11-26T03:21:57.060Z,74127.53
2022-11-26T03:22:31.902Z,74131.53
2022-11-26T03:23:04.125Z,74127.53
2022-11-26T03:23:36.351Z,74131.53
2022-11-26T03:24:11.400Z,74127.53
2022-11-26T03:24:43.778Z,74131.53
2022-11-26T03:25:16.303Z,74127.53
2022-11-26T03:25:51.167Z,74133.53
2022-11-26T03:26:23.465Z,74123.53
2022-11-26T03:26:55.715Z,74131.53
2022-11-26T03:27:27.933Z,74123.53
2022-11-26T03:28:02.746Z,74123.53
2022-11-26T03:28:35.003Z,74119.56
2022-11-26T03:29:07.203Z,74131.53
2022-11-26T03:29:42.051Z,74127.53
2022-11-26T03:30:14.753Z,74133.53
2022-11-26T03:30:52.344Z,74123.53
2022-11-26T03:31:24.596Z,74107.56
2022-11-26T03:31:57.084Z,74089.59
2022-11-26T03:32:31.956Z,74071.63
2022-11-26T03:33:04.374Z,74051.66
2022-11-26T03:33:36.600Z,74035.69
2022-11-26T03:34:08.811Z,74019.72
2022-11-26T03:34:43.724Z,74007.75
2022-11-26T03:35:16.037Z,73993.75
2022-11-26T03:35:48.990Z,73991.78
2022-11-26T03:36:23.827Z,73983.78
2022-11-26T03:36:56.108Z,73971.81
2022-11-26T03:37:28.500Z,73965.81
2022-11-26T03:38:03.342Z,73959.81
2022-11-26T03:38:35.547Z,73955.84
2022-11-26T03:39:07.932Z,73949.84
2022-11-26T03:39:40.424Z,73947.84
2022-11-26T03:40:16.864Z,73939.84
2022-11-26T03:40:56.578Z,73935.88
2022-11-26T03:41:28.854Z,73939.84
2022-11-26T03:42:03.723Z,73929.88
2022-11-26T03:42:36.007Z,73927.88
2022-11-26T03:43:08.232Z,73927.88
2022-11-26T03:43:43.053Z,73927.88
2022-11-26T03:44:15.287Z,73925.88
2022-11-26T03:44:47.535Z,73923.88
2022-11-26T03:45:22.437Z,73923.88
2022-11-26T03:45:57.332Z,73917.91
2022-11-26T03:46:29.686Z,73911.91
2022-11-26T03:47:04.664Z,73919.91
2022-11-26T03:47:36.864Z,73923.88
2022-11-26T03:48:09.077Z,73915.91
2022-11-26T03:48:43.968Z,73913.91
2022-11-26T03:49:16.237Z,73915.91
2022-11-26T03:49:49.132Z,73911.91
2022-11-26T03:50:24.099Z,73909.91
2022-11-26T03:50:56.308Z,73911.91
2022-11-26T03:51:28.717Z,73911.91
2022-11-26T03:52:03.571Z,73907.91
2022-11-26T03:52:35.783Z,73909.91
2022-11-26T03:53:07.988Z,73903.91
2022-11-26T03:53:43.406Z,73907.91
2022-11-26T03:54:18.431Z,73903.91
2022-11-26T03:54:50.700Z,73907.91
2022-11-26T03:55:25.499Z,73915.91
2022-11-26T03:55:57.731Z,73911.91
2022-11-26T03:56:29.971Z,73911.91
2022-11-26T03:57:04.843Z,73909.91
2022-11-26T03:57:37.250Z,73911.91
2022-11-26T03:58:09.454Z,73911.91
2022-11-26T03:58:44.270Z,73917.91
2022-11-26T03:59:16.499Z,73913.91
2022-11-26T03:59:48.748Z,73907.91
2022-11-26T04:00:24.580Z,73911.91
2022-11-26T04:00:59.505Z,73911.91
2022-11-26T04:01:31.860Z,73913.91
2022-11-26T04:02:07.540Z,73909.91
2022-11-26T04:02:39.835Z,73909.91
2022-11-26T04:03:12.075Z,73915.91
2022-11-26T04:03:47.113Z,73915.91
2022-11-26T04:04:19.399Z,73915.91
2022-11-26T04:04:51.783Z,73915.91
2022-11-26T04:05:26.600Z,73915.91
2022-11-26T04:05:59.877Z,73909.91
2022-11-26T04:06:32.306Z,73915.91
2022-11-26T04:07:07.210Z,73917.91
2022-11-26T04:07:39.730Z,73915.91
2022-11-26T04:08:12.089Z,73921.88
2022-11-26T04:08:47.098Z,73919.91
2022-11-26T04:09:19.419Z,73923.88
2022-11-26T04:09:52.624Z,73923.88
2022-11-26T04:10:27.649Z,73923.88
2022-11-26T04:10:59.994Z,73923.88
2022-11-26T04:11:32.226Z,73923.88
2022-11-26T04:12:07.527Z,73925.88
2022-11-26T04:12:39.784Z,73915.91
2022-11-26T04:13:12.009Z,73929.88
2022-11-26T04:13:46.832Z,73915.91
2022-11-26T04:14:19.068Z,73921.88
2022-11-26T04:14:51.455Z,73923.88
2022-11-26T04:15:26.288Z,73927.88
2022-11-26T04:16:01.097Z,73921.88
2022-11-26T04:16:33.462Z,73927.88
2022-11-26T04:17:08.364Z,73919.91
2022-11-26T04:17:40.578Z,73923.88
2022-11-26T04:18:12.788Z,73915.91
2022-11-26T04:18:47.597Z,73919.91
2022-11-26T04:19:19.861Z,73927.88
2022-11-26T04:19:52.233Z,73927.88
2022-11-26T04:20:27.040Z,73927.88
2022-11-26T04:20:59.265Z,73919.91
2022-11-26T04:21:31.479Z,73921.88
2022-11-26T04:22:06.345Z,73929.88
2022-11-26T04:22:38.561Z,73917.91
2022-11-26T04:23:10.779Z,73919.91
2022-11-26T04:23:45.607Z,73919.91
2022-11-26T04:24:17.823Z,73923.88
2022-11-26T04:24:50.119Z,73927.88
2022-11-26T04:25:24.944Z,73923.88
2022-11-26T04:25:57.496Z,73923.88
2022-11-26T04:26:30.111Z,73915.91
2022-11-26T04:27:05.020Z,73923.88
2022-11-26T04:27:37.232Z,73915.91
2022-11-26T04:28:09.711Z,73915.91
2022-11-26T04:28:44.566Z,73917.91
2022-11-26T04:29:16.840Z,73917.91
2022-11-26T04:29:49.067Z,73915.91
2022-11-26T04:30:23.908Z,73915.91
2022-11-26T04:30:56.133Z,73911.91
2022-11-26T04:31:31.179Z,73915.91
2022-11-26T04:32:06.531Z,73917.91
2022-11-26T04:32:40.061Z,73907.91
2022-11-26T04:33:12.267Z,73911.91
2022-11-26T04:33:47.240Z,73911.91
2022-11-26T04:34:19.435Z,73913.91
2022-11-26T04:34:51.657Z,73915.91
2022-11-26T04:35:26.493Z,73907.91
2022-11-26T04:35:58.711Z,73911.91
2022-11-26T04:36:30.966Z,73917.91
2022-11-26T04:37:05.800Z,73917.91
2022-11-26T04:37:38.048Z,73921.88
2022-11-26T04:38:10.358Z,73909.91
2022-11-26T04:38:45.232Z,73909.91
2022-11-26T04:39:17.443Z,73911.91
2022-11-26T04:39:49.646Z,73915.91
2022-11-26T04:40:24.476Z,73911.91
2022-11-26T04:40:56.687Z,73913.91
2022-11-26T04:41:29.006Z,73917.91
2022-11-26T04:42:03.836Z,73913.91
2022-11-26T04:42:36.067Z,73911.91
2022-11-26T04:43:08.280Z,73915.91
2022-11-26T04:43:43.130Z,73923.88
2022-11-26T04:44:15.402Z,73917.91
2022-11-26T04:44:47.622Z,73923.88
2022-11-26T04:45:22.579Z,73919.91
2022-11-26T04:45:54.940Z,73915.91
2022-11-26T04:46:27.241Z,73911.91
2022-11-26T04:47:04.696Z,73917.91
2022-11-26T04:47:41.503Z,73915.91
2022-11-26T04:48:15.143Z,73917.91
2022-11-26T04:48:49.953Z,73927.88
2022-11-26T04:49:22.160Z,73923.88
2022-11-26T04:49:54.405Z,73925.88
2022-11-26T04:50:26.679Z,73923.88
2022-11-26T04:51:01.521Z,73923.88
2022-11-26T04:51:33.796Z,73923.88
2022-11-26T04:52:06.044Z,73923.88
2022-11-26T04:52:40.907Z,73927.88
2022-11-26T04:53:13.117Z,73923.88
2022-11-26T04:53:45.327Z,73931.88
2022-11-26T04:54:20.149Z,73927.88
2022-11-26T04:54:52.379Z,73935.88
2022-11-26T04:55:24.856Z,73935.88
2022-11-26T04:55:59.659Z,73933.88
2022-11-26T04:56:31.875Z,73935.88
2022-11-26T04:57:04.277Z,73933.88
2022-11-26T04:57:39.095Z,73931.88
2022-11-26T04:58:11.304Z,73939.84
2022-11-26T04:58:43.532Z,73935.88
2022-11-26T04:59:18.408Z,73937.88
2022-11-26T04:59:50.619Z,73935.88
2022-11-26T05:00:22.876Z,73941.84
2022-11-26T05:00:57.716Z,73941.84
2022-11-26T05:01:30.078Z,73935.88
2022-11-26T05:02:05.005Z,73939.84
2022-11-26T05:02:39.910Z,73939.84
2022-11-26T05:03:12.676Z,73939.84
2022-11-26T05:03:47.529Z,73939.84
2022-11-26T05:04:20.327Z,73945.84
2022-11-26T05:04:52.562Z,73951.84
2022-11-26T05:05:27.408Z,73945.84
2022-11-26T05:05:59.700Z,73947.84
2022-11-26T05:06:31.910Z,73949.84
2022-11-26T05:07:07.431Z,73947.84
2022-11-26T05:07:40.273Z,73951.84
2022-11-26T05:08:12.589Z,73949.84
2022-11-26T05:08:47.468Z,73947.84
2022-11-26T05:09:19.732Z,73949.84
2022-11-26T05:09:51.979Z,73947.84
2022-11-26T05:10:26.801Z,73955.84
2022-11-26T05:11:01.145Z,73949.84
2022-11-26T05:11:36.063Z,73951.84
2022-11-26T05:12:08.346Z,73953.84
2022-11-26T05:12:40.552Z,73955.84
2022-11-26T05:13:15.365Z,73955.84
2022-11-26T05:13:47.610Z,73955.84
2022-11-26T05:14:19.868Z,73951.84
2022-11-26T05:14:54.740Z,73951.84
2022-11-26T05:15:26.993Z,73949.84
2022-11-26T05:15:59.219Z,73951.84
2022-11-26T05:16:34.061Z,73951.84
2022-11-26T05:17:08.975Z,73951.84
2022-11-26T05:17:41.190Z,73953.84
2022-11-26T05:18:16.281Z,73951.84
2022-11-26T05:18:48.562Z,73959.81
2022-11-26T05:19:20.838Z,73953.84
2022-11-26T05:19:55.648Z,73955.84
2022-11-26T05:20:27.871Z,73959.81
2022-11-26T05:21:00.240Z,73955.84
2022-11-26T05:21:35.266Z,73965.81
2022-11-26T05:22:07.502Z,73955.84
2022-11-26T05:22:39.745Z,73959.81
2022-11-26T05:23:14.616Z,73959.81
2022-11-26T05:23:46.843Z,73955.84
2022-11-26T05:24:19.328Z,73959.81
2022-11-26T05:24:54.140Z,73959.81
2022-11-26T05:25:26.380Z,73963.81
2022-11-26T05:25:58.589Z,73961.81
2022-11-26T05:26:33.414Z,73965.81
2022-11-26T05:27:05.804Z,73967.81
2022-11-26T05:27:38.062Z,73965.81
2022-11-26T05:28:12.979Z,73967.81
2022-11-26T05:28:45.228Z,73967.81
2022-11-26T05:29:17.501Z,73959.81
2022-11-26T05:29:52.344Z,73967.81
2022-11-26T05:30:24.576Z,73963.81
2022-11-26T05:31:03.006Z,73967.81
2022-11-26T05:31:35.293Z,73969.81
2022-11-26T05:32:10.251Z,73963.81
2022-11-26T05:32:45.206Z,73963.81
2022-11-26T05:33:17.412Z,73963.81
2022-11-26T05:33:49.627Z,73967.81
2022-11-26T05:34:24.504Z,73971.81
2022-11-26T05:35:00.029Z,73969.81
2022-11-26T05:35:35.249Z,73971.81
2022-11-26T05:36:08.184Z,73963.81
2022-11-26T05:36:40.396Z,73963.81
2022-11-26T05:37:15.209Z,73967.81
2022-11-26T05:37:47.491Z,73963.81
2022-11-26T05:38:19.837Z,73961.81
2022-11-26T05:38:54.649Z,73963.81
2022-11-26T05:39:27.057Z,73959.81
2022-11-26T05:39:59.314Z,73955.84
2022-11-26T05:40:34.140Z,73959.81
2022-11-26T05:41:06.362Z,73963.81
2022-11-26T05:41:38.604Z,73959.81
2022-11-26T05:42:15.411Z,73959.81
2022-11-26T05:42:47.616Z,73963.81
2022-11-26T05:43:19.830Z,73961.81
2022-11-26T05:43:54.714Z,73957.81
2022-11-26T05:44:27.117Z,73959.81
2022-11-26T05:44:59.329Z,73963.81
2022-11-26T05:45:34.258Z,73959.81
2022-11-26T05:46:07.734Z,73959.81
2022-11-26T05:46:42.342Z,73959.81
2022-11-26T05:47:19.772Z,73959.81
2022-11-26T05:47:51.998Z,73963.81
2022-11-26T05:48:24.212Z,73959.81
2022-11-26T05:48:59.373Z,73963.81
2022-11-26T05:49:31.588Z,73963.81
2022-11-26T05:50:04.433Z,73963.81
2022-11-26T05:50:39.360Z,73963.81
2022-11-26T05:51:11.869Z,73963.81
2022-11-26T05:51:44.081Z,73963.81
2022-11-26T05:52:18.903Z,73963.81
2022-11-26T05:52:51.135Z,73953.84
2022-11-26T05:53:23.337Z,73963.81
2022-11-26T05:53:58.136Z,73959.81
2022-11-26T05:54:30.375Z,73965.81
2022-11-26T05:55:02.636Z,73959.81
2022-11-26T05:55:38.114Z,73961.81
2022-11-26T05:56:10.368Z,73963.81
2022-11-26T05:56:43.460Z,73959.81
2022-11-26T05:57:18.361Z,73963.81
2022-11-26T05:57:50.611Z,73959.81
2022-11-26T05:58:22.841Z,73963.81
2022-11-26T05:58:57.674Z,73963.81
2022-11-26T05:59:29.954Z,73959.81
2022-11-26T06:00:02.167Z,73963.81
2022-11-26T06:00:46.386Z,73963.81
2022-11-26T06:01:18.702Z,73979.78
2022-11-26T06:01:50.936Z,73987.78
2022-11-26T06:02:28.507Z,73997.75
2022-11-26T06:03:00.843Z,74013.72
2022-11-26T06:03:33.205Z,74027.72
2022-11-26T06:04:08.369Z,74039.69
2022-11-26T06:04:40.877Z,74055.66
2022-11-26T06:05:13.231Z,74059.66
2022-11-26T06:05:45.581Z,74071.63
2022-11-26T06:06:20.401Z,74087.59
2022-11-26T06:06:52.656Z,74095.59
2022-11-26T06:07:24.906Z,74103.56
2022-11-26T06:07:59.770Z,74111.56
2022-11-26T06:08:32.372Z,74117.56
2022-11-26T06:09:04.788Z,74123.53
2022-11-26T06:09:37.450Z,74133.53
2022-11-26T06:10:13.420Z,74131.53
2022-11-26T06:10:45.643Z,74139.53
2022-11-26T06:11:17.883Z,74143.50
2022-11-26T06:11:53.442Z,74147.50
2022-11-26T06:12:25.757Z,74147.50
2022-11-26T06:13:00.596Z,74153.50
2022-11-26T06:13:32.812Z,74155.50
2022-11-26T06:14:05.049Z,74159.47
2022-11-26T06:14:43.093Z,74161.47
2022-11-26T06:15:15.871Z,74163.47
2022-11-26T06:15:48.256Z,74171.47
2022-11-26T06:16:23.138Z,74167.47
2022-11-26T06:16:55.495Z,74171.47
2022-11-26T06:17:30.836Z,74171.47
2022-11-26T06:18:05.685Z,74175.47
2022-11-26T06:18:38.181Z,74179.44
2022-11-26T06:19:10.933Z,74179.44
2022-11-26T06:19:45.732Z,74179.44
2022-11-26T06:20:18.088Z,74185.44
2022-11-26T06:20:50.327Z,74183.44
2022-11-26T06:21:25.158Z,74187.44
2022-11-26T06:21:57.408Z,74191.44
2022-11-26T06:22:29.612Z,74189.44
2022-11-26T06:23:04.429Z,74193.44
2022-11-26T06:23:36.687Z,74199.41
2022-11-26T06:24:09.167Z,74203.41
2022-11-26T06:24:44.054Z,74199.41
2022-11-26T06:25:16.292Z,74207.41
2022-11-26T06:25:48.588Z,74203.41
2022-11-26T06:26:23.389Z,74209.41
2022-11-26T06:26:55.619Z,74211.41
2022-11-26T06:27:27.852Z,74215.41
2022-11-26T06:28:02.748Z,74213.41
2022-11-26T06:28:35.061Z,74223.38
2022-11-26T06:29:07.268Z,74215.41
2022-11-26T06:29:42.096Z,74223.38
2022-11-26T06:30:15.167Z,74219.38
2022-11-26T06:30:47.448Z,74219.38
2022-11-26T06:31:22.364Z,74219.38
2022-11-26T06:31:54.777Z,74225.38
2022-11-26T06:32:30.074Z,74227.38
2022-11-26T06:33:04.910Z,74225.38
2022-11-26T06:33:37.463Z,74221.38
2022-11-26T06:34:09.676Z,74227.38
2022-11-26T06:34:45.119Z,74231.38
2022-11-26T06:35:18.968Z,74227.38
2022-11-26T06:35:51.226Z,74223.38
2022-11-26T06:36:26.347Z,74231.38
2022-11-26T06:36:58.600Z,74227.38
2022-11-26T06:37:34.856Z,74235.34
2022-11-26T06:38:07.075Z,74231.38
2022-11-26T06:38:41.903Z,74239.34
2022-11-26T06:39:14.112Z,74237.34
2022-11-26T06:39:46.576Z,74231.38
2022-11-26T06:40:23.107Z,74231.38
2022-11-26T06:40:59.454Z,74239.34
2022-11-26T06:41:31.739Z,74227.38
2022-11-26T06:42:06.936Z,74237.34
2022-11-26T06:42:39.144Z,74235.34
2022-11-26T06:43:11.359Z,74231.38
2022-11-26T06:43:46.234Z,74231.38
2022-11-26T06:44:18.450Z,74227.38
2022-11-26T06:44:50.685Z,74237.34
2022-11-26T06:45:26.345Z,74231.38
2022-11-26T06:46:01.808Z,74241.34